メインページ
METAR-TAF:

METAR-TAF

空港 :

ブルネイ国際空港

ブルネイ, ブルネイ

緯度: 04-56N, 経度: 114-56E, 海抜: 22m

現時点の気象観測

当レポートは39分前の20:30(UTC)に作成
南東の風 2kt
気温 25°C
湿度 100%
気圧 1008 hPa
視程10km以上
高度300ftの雲はほとんどない
高度14000ftの千切れ雲あり

METAR: WBSB 222030Z 13002KT 9999 FEW003 BKN140 25/25 Q1008 NOSIG

時間: 05:09 (21:09 UTC)

予報

当レポートは4時間9分前の17:00(UTC)に作成
予報は22日の 18時(UTC)から 24日の 00時(UTC)まで有効
南/南西の風 3kt
視程10km以上
高度300ftの雲はほとんどない
高度1400ftの雲は散在している
高度1500ftの雲はほとんどない, 積乱雲.
22日の 18時(UTC)から 22日の 20時(UTC)まで一時的に
視程: 7000m
にわか雨, 激しい雷雨, 雨
23日の 03時(UTC)から 23日の 05時(UTC)まで徐々に
北/北西の風 10kt
高度1500ftの雲は散在している
高度1600ftの雲はほとんどない, 積乱雲.

TAF: WBSB 221700Z 2218/2400 20003KT 9999 FEW003 SCT014 FEW015CB TEMPO 2218/2220 7000 SHRA TSRA BECMG 2303/2305 33010KT SCT015 FEW016CB

4,000以上の空港の気象観測と天気予報(METAR報とTAF報)

利用可能な観測所は地図上に黄色い丸と赤い丸で示す。

丸の上にカーソルを重ねると観測所名を参照できる。

次にクリックすると気象観測と天気予報を参照できる。

マップの切り替え:黒色「×」印の緑ボタンをクリックして拡大、「-」印の緑ボタンをクリックして縮小、緑色の三角印をクリックして隣りの地図に切り替え


METAR-TAF: